Time;durP1;ratioP1;P1;durP2;ratioP2;P2;SDS_P1;SDS_P2;PMS_P1;PMS_P2;Temp;Humidity;BMP_temperature;BMP_pressure;BME280_temperature;BME280_humidity;BME280_pressure;Samples;Min_cycle;Max_cycle;Signal;HPM_P1;HPM_P2
2023/06/22 00:01:47;;;;;;;10.37;7.00;;;19.00;99.90;;;19.22;86.47;98070.19;4976842;28;20487;-71
2023/06/22 00:04:14;;;;;;;9.63;6.70;;;19.00;99.90;;;19.17;86.94;98061.13;4975565;28;20899;-71
2023/06/22 00:06:41;;;;;;;6.83;6.17;;;19.00;99.90;;;18.94;87.97;98057.75;4988764;28;20461;-70
2023/06/22 00:09:10;;;;;;;7.00;6.30;;;18.90;99.90;;;18.74;87.69;98006.53;4986958;28;21032;-72
2023/06/22 00:11:37;;;;;;;8.50;6.47;;;18.90;99.90;;;19.15;86.69;98058.66;4987717;28;21055;-71
2023/06/22 00:14:04;;;;;;;7.47;6.00;;;19.00;99.90;;;19.31;86.40;98061.41;4984312;28;20501;-72
2023/06/22 00:16:33;;;;;;;7.90;5.87;;;19.00;99.90;;;19.36;86.22;98064.97;4987086;28;20498;-71
2023/06/22 00:19:02;;;;;;;6.40;5.80;;;19.00;99.90;;;19.40;85.72;98060.59;4988213;28;20475;-72
2023/06/22 00:21:29;;;;;;;8.73;6.10;;;19.10;99.90;;;19.18;86.88;98060.84;4980403;28;20461;-72
2023/06/22 00:23:57;;;;;;;6.70;5.93;;;19.00;99.90;;;19.18;86.48;98063.56;4988222;28;20475;-73
2023/06/22 00:26:26;;;;;;;9.30;6.27;;;18.90;99.90;;;19.20;86.94;98064.16;4985501;28;20456;-73
2023/06/22 00:28:53;;;;;;;6.60;5.70;;;18.80;99.90;;;19.21;87.25;98078.66;4985909;28;20468;-74
2023/06/22 00:31:20;;;;;;;6.77;5.20;;;18.70;99.90;;;19.46;87.06;98074.31;4975039;28;20806;-72
2023/06/22 00:33:47;;;;;;;6.23;5.40;;;18.90;99.90;;;19.62;85.21;98080.63;4986804;28;20464;-72
2023/06/22 00:36:16;;;;;;;7.60;6.30;;;19.10;99.90;;;19.29;85.14;98048.00;4969424;28;20471;-72
2023/06/22 00:38:43;;;;;;;5.40;4.80;;;19.10;99.90;;;19.67;85.10;98086.13;4992510;28;20975;-73
2023/06/22 00:41:10;;;;;;;6.43;5.70;;;19.10;99.90;;;19.77;84.45;98096.25;4987030;28;20505;-72
2023/06/22 00:43:41;;;;;;;5.77;5.20;;;19.20;99.90;;;19.86;83.36;98105.56;4988587;28;20542;-71
2023/06/22 00:46:09;;;;;;;6.70;6.10;;;19.30;99.90;;;19.88;83.01;98108.88;4989241;28;20796;-72
2023/06/22 00:48:36;;;;;;;6.60;5.90;;;19.40;99.90;;;19.96;82.77;98110.28;4987900;28;21013;-71
2023/06/22 00:51:04;;;;;;;8.60;6.30;;;19.50;98.90;;;19.79;82.66;98105.84;4986935;28;20528;-69
2023/06/22 00:53:35;;;;;;;6.97;6.33;;;19.50;98.50;;;19.47;84.39;98117.88;4986025;28;20972;-73
2023/06/22 00:56:03;;;;;;;6.73;5.90;;;19.30;99.00;;;19.25;85.35;98121.66;4986182;28;20453;-71
2023/06/22 00:58:31;;;;;;;5.63;5.00;;;19.10;99.90;;;19.17;86.83;98105.75;4986721;28;20495;-70
2023/06/22 01:01:00;;;;;;;7.50;6.13;;;19.00;99.90;;;19.00;87.60;98102.41;4987606;28;20520;-72
2023/06/22 01:03:27;;;;;;;5.83;5.03;;;18.90;99.90;;;19.06;87.51;98090.41;4986764;28;20471;-72
2023/06/22 01:06:08;;;;;;;6.83;6.10;;;18.80;99.90;;;19.06;87.54;98104.09;4984607;28;20928;-69
2023/06/22 01:08:45;;;;;;;7.67;6.13;;;18.80;99.90;;;18.98;87.73;98108.94;4969367;28;20533;-72
2023/06/22 01:11:21;;;;;;;7.70;5.93;;;18.70;99.90;;;18.75;89.07;98103.94;4985444;28;20467;-69
2023/06/22 01:13:58;;;;;;;6.37;5.77;;;18.60;99.90;;;18.79;89.22;98088.63;4984444;28;20462;-72
2023/06/22 01:16:30;;;;;;;7.00;5.57;;;18.60;99.90;;;18.73;89.21;98085.06;4981447;28;20455;-70
2023/06/22 01:19:10;;;;;;;7.33;6.17;;;18.60;99.90;;;18.63;89.77;98074.06;4987459;28;20960;-72
2023/06/22 01:21:38;;;;;;;6.20;5.60;;;18.50;99.90;;;18.54;90.22;98055.44;4968509;28;20546;-73
2023/06/22 01:24:19;;;;;;;6.40;5.80;;;18.50;99.90;;;18.47;90.90;98049.38;4986766;28;20577;-72
2023/06/22 01:27:00;;;;;;;6.70;5.60;;;18.50;99.90;;;18.63;90.43;98041.22;4985336;28;21176;-73
2023/06/22 01:29:31;;;;;;;7.90;5.80;;;18.50;99.90;;;18.59;90.30;98032.75;4984155;28;20470;-72
2023/06/22 01:32:01;;;;;;;6.73;6.00;;;18.50;99.90;;;18.51;90.29;98027.78;4983383;28;20487;-72
2023/06/22 01:34:30;;;;;;;6.10;5.50;;;18.50;99.90;;;18.76;90.10;98013.34;4983517;28;20575;-71
2023/06/22 01:36:59;;;;;;;6.73;5.40;;;18.60;99.90;;;18.93;88.80;98013.13;4986539;28;20746;-71
2023/06/22 01:39:28;;;;;;;8.70;7.30;;;18.70;99.90;;;18.83;87.83;98003.00;4995996;28;20915;-71
2023/06/22 01:41:55;;;;;;;6.60;5.73;;;18.80;99.90;;;19.03;87.17;98028.78;4986485;28;20572;-71
2023/06/22 01:44:24;;;;;;;7.80;6.10;;;18.90;99.90;;;19.27;85.83;98038.41;4989868;28;20482;-72
2023/06/22 01:46:53;;;;;;;6.03;5.43;;;18.90;99.90;;;19.28;85.06;98034.56;4996767;28;20544;-72
2023/06/22 01:49:21;;;;;;;5.70;5.07;;;19.00;99.90;;;19.47;84.22;98037.59;4991127;28;20517;-71
2023/06/22 01:51:48;;;;;;;5.97;5.47;;;19.20;99.10;;;19.33;84.44;98029.94;4968387;28;20449;-73
2023/06/22 01:54:15;;;;;;;7.07;5.80;;;19.20;98.70;;;19.37;83.97;98032.94;4985047;28;20464;-73
2023/06/22 01:56:43;;;;;;;6.87;6.17;;;19.20;98.10;;;19.13;85.24;98033.47;4986601;28;20956;-72
2023/06/22 01:59:16;;;;;;;6.40;5.53;;;19.10;98.60;;;19.04;85.68;98043.31;4987668;28;20466;-72
2023/06/22 02:01:51;;;;;;;5.93;5.43;;;19.00;99.40;;;18.73;87.33;98038.53;4962543;28;21053;-70
2023/06/22 02:04:26;;;;;;;5.83;5.30;;;18.80;99.90;;;18.91;86.43;98042.69;4982845;28;20490;-71
2023/06/22 02:06:57;;;;;;;7.70;6.53;;;18.80;99.90;;;18.67;86.35;98013.06;4967119;28;20994;-72
2023/06/22 02:09:27;;;;;;;6.80;6.03;;;18.80;99.90;;;18.63;87.46;98039.31;4982947;28;20454;-74
2023/06/22 02:11:57;;;;;;;7.30;5.90;;;18.70;99.90;;;18.67;87.77;98053.28;4985746;28;20470;-70
2023/06/22 02:14:25;;;;;;;7.57;6.80;;;18.60;99.90;;;18.67;87.60;98056.84;4983424;28;20671;-70
2023/06/22 02:16:52;;;;;;;8.50;6.57;;;18.50;99.90;;;18.62;87.84;98056.81;4985702;28;20463;-72
2023/06/22 02:19:25;;;;;;;9.23;5.80;;;18.50;99.90;;;18.64;87.67;98064.75;4983605;28;20467;-72
2023/06/22 02:21:53;;;;;;;7.10;6.40;;;18.40;99.90;;;18.41;88.87;98055.91;4983534;28;20455;-73
2023/06/22 02:24:23;;;;;;;7.30;6.53;;;18.30;99.90;;;18.49;88.78;98073.72;4985018;28;20530;-71
2023/06/22 02:26:50;;;;;;;6.70;6.00;;;18.20;99.90;;;18.53;88.32;98058.41;4986738;28;20482;-72
2023/06/22 02:29:18;;;;;;;6.33;5.53;;;18.20;99.90;;;18.33;89.22;98059.97;4970179;28;20975;-72
2023/06/22 02:31:45;;;;;;;8.37;6.70;;;18.10;99.90;;;18.26;90.37;98062.09;4981042;28;20826;-72
2023/06/22 02:34:18;;;;;;;6.57;5.97;;;18.00;99.90;;;18.40;89.59;98059.72;4965648;28;20478;-71
2023/06/22 02:36:50;;;;;;;7.97;7.17;;;18.00;99.90;;;18.31;89.45;98056.69;4985921;28;20502;-72
2023/06/22 02:39:21;;;;;;;6.23;5.73;;;18.10;99.90;;;18.32;89.81;98058.31;4985482;28;20474;-72
2023/06/22 02:41:49;;;;;;;6.60;5.90;;;18.10;99.90;;;18.30;90.00;98065.13;4982917;28;20461;-72
2023/06/22 02:44:16;;;;;;;7.30;6.47;;;18.10;99.90;;;18.14;90.96;98088.84;4983361;28;20573;-73
2023/06/22 02:46:44;;;;;;;7.30;6.10;;;18.00;99.90;;;18.29;90.75;98110.81;4983952;28;20478;-72
2023/06/22 02:49:12;;;;;;;9.87;6.80;;;18.10;99.90;;;18.11;91.64;98123.81;4981410;28;20533;-70
2023/06/22 02:51:46;;;;;;;6.43;5.40;;;18.10;99.90;;;18.17;91.70;98143.00;4981940;28;20565;-71
2023/06/22 02:54:15;;;;;;;6.67;6.00;;;18.20;99.90;;;17.98;92.80;98167.97;4986968;28;20454;-70
2023/06/22 02:56:43;;;;;;;8.20;7.47;;;18.10;99.90;;;17.98;92.71;98185.19;4991999;28;20453;-72
2023/06/22 02:59:10;;;;;;;9.30;8.10;;;18.10;99.90;;;17.92;93.49;98185.41;4979005;28;20492;-72
2023/06/22 03:01:39;;;;;;;8.70;7.13;;;18.10;99.90;;;17.89;94.07;98173.06;4978328;28;20574;-72
2023/06/22 03:04:07;;;;;;;9.40;7.53;;;18.00;99.90;;;17.91;93.49;98172.81;4984538;28;20525;-71
2023/06/22 03:06:35;;;;;;;7.90;6.80;;;18.00;99.90;;;17.73;94.50;98188.50;4986782;28;20462;-73
2023/06/22 03:09:04;;;;;;;8.17;7.37;;;17.90;99.90;;;17.72;94.81;98186.88;4970342;28;20459;-70
2023/06/22 03:11:34;;;;;;;7.80;7.00;;;17.80;99.90;;;17.64;95.34;98179.13;4978934;28;20475;-72
2023/06/22 03:14:02;;;;;;;7.93;7.03;;;17.80;99.90;;;17.56;95.64;98178.50;4984329;28;20529;-73
2023/06/22 03:16:30;;;;;;;10.13;7.87;;;17.70;99.90;;;17.38;97.87;98176.13;4970765;28;21050;-73
2023/06/22 03:18:57;;;;;;;8.73;7.60;;;17.60;99.90;;;17.59;97.13;98159.97;4984461;28;20747;-71
2023/06/22 03:21:26;;;;;;;9.20;7.93;;;17.60;99.90;;;17.53;97.09;98157.19;4984214;28;20917;-73
2023/06/22 03:23:53;;;;;;;9.57;8.27;;;17.50;99.90;;;17.64;95.99;98165.47;4971338;28;20524;-72
2023/06/22 03:26:21;;;;;;;8.00;7.20;;;17.50;99.90;;;17.69;95.05;98157.34;4984896;28;20489;-74
2023/06/22 03:28:49;;;;;;;8.50;7.60;;;17.60;99.90;;;17.65;95.23;98154.28;4983408;28;20464;-70
2023/06/22 03:31:21;;;;;;;8.73;7.83;;;17.60;99.90;;;17.70;95.09;98151.59;4994364;28;20546;-73
2023/06/22 03:33:49;;;;;;;8.00;7.20;;;17.50;99.90;;;17.82;93.50;98140.50;4993445;28;20535;-71
2023/06/22 03:36:18;;;;;;;9.40;7.50;;;17.60;99.90;;;17.82;92.92;98135.06;4999116;28;20503;-70
2023/06/22 03:38:46;;;;;;;9.80;8.20;;;17.70;99.90;;;17.80;92.28;98129.00;4998831;28;20570;-72
2023/06/22 03:41:13;;;;;;;9.40;7.07;;;17.70;99.90;;;17.78;92.49;98131.16;4986951;28;20971;-71
2023/06/22 03:43:40;;;;;;;8.87;7.97;;;17.60;99.90;;;17.68;92.94;98120.97;4989155;28;20470;-72
2023/06/22 03:46:09;;;;;;;7.00;6.30;;;17.60;99.90;;;17.90;91.94;98114.63;4984475;28;20562;-71
2023/06/22 03:48:36;;;;;;;7.30;6.30;;;17.70;99.90;;;17.86;91.63;98134.53;4989035;28;20471;-71
2023/06/22 03:51:04;;;;;;;8.33;6.83;;;17.80;99.90;;;18.03;91.08;98116.09;4987828;28;20959;-71
2023/06/22 03:53:31;;;;;;;9.53;8.10;;;17.80;99.90;;;17.93;91.18;98105.06;4985658;28;20463;-72
2023/06/22 03:55:58;;;;;;;7.47;6.67;;;17.90;99.90;;;18.03;90.40;98109.81;4987484;28;20458;-71
2023/06/22 03:58:26;;;;;;;8.07;7.07;;;17.90;99.90;;;18.07;90.12;98106.28;4984497;28;20988;-72
2023/06/22 04:00:54;;;;;;;11.47;7.67;;;18.00;99.90;;;18.04;90.31;98089.56;4979736;28;20449;-72
2023/06/22 04:03:23;;;;;;;9.30;7.40;;;18.00;99.90;;;18.18;89.75;98089.97;4982293;28;20456;-72
2023/06/22 04:05:50;;;;;;;7.57;6.80;;;18.10;99.90;;;18.35;88.55;98096.09;4986325;28;20488;-70
2023/06/22 04:08:19;;;;;;;7.90;7.10;;;18.30;99.90;;;18.63;86.57;98093.19;4980380;28;20462;-70
2023/06/22 04:10:46;;;;;;;6.87;6.17;;;18.60;99.20;;;18.80;85.47;98082.91;4982459;28;20522;-72
2023/06/22 04:13:13;;;;;;;7.23;6.40;;;18.80;97.50;;;19.11;83.71;98084.94;4979918;28;20483;-72
2023/06/22 04:15:41;;;;;;;9.00;6.93;;;19.10;96.50;;;19.40;82.09;98059.78;4995357;28;20464;-70
2023/06/22 04:18:08;;;;;;;7.60;6.90;;;19.40;95.20;;;19.39;81.68;98052.66;4988010;28;20462;-71
2023/06/22 04:20:37;;;;;;;7.20;5.90;;;19.50;94.50;;;20.18;78.54;98057.03;4969818;28;20471;-71
2023/06/22 04:23:04;;;;;;;7.70;6.40;;;20.00;94.10;;;20.90;74.66;98069.69;4980177;28;20461;-71
2023/06/22 04:25:31;;;;;;;6.70;6.10;;;20.60;92.30;;;21.43;72.50;98051.81;4986624;28;20489;-70
2023/06/22 04:27:59;;;;;;;8.77;6.07;;;21.20;91.10;;;21.34;72.11;98035.94;4964503;28;20473;-72
2023/06/22 04:30:26;;;;;;;7.47;5.97;;;21.40;90.40;;;21.41;71.41;98035.59;4977992;28;20545;-72
2023/06/22 04:32:57;;;;;;;6.37;5.70;;;21.60;90.20;;;21.27;71.41;98054.66;4968326;28;20927;-70
2023/06/22 04:35:25;;;;;;;6.47;5.50;;;21.50;90.00;;;21.86;70.11;98064.97;4981066;28;20821;-72
2023/06/22 04:37:55;;;;;;;7.30;6.03;;;21.70;90.00;;;22.48;67.28;98036.84;4987761;28;20545;-72
2023/06/22 04:40:23;;;;;;;6.43;5.70;;;22.40;88.60;;;21.72;69.38;98016.13;4991362;28;20470;-71
2023/06/22 04:42:53;;;;;;;6.87;5.63;;;22.30;87.90;;;21.57;70.22;98019.00;4985755;28;20471;-71
2023/06/22 04:45:21;;;;;;;6.33;5.73;;;22.00;88.60;;;21.65;70.04;98024.72;4984864;28;20489;-72
2023/06/22 04:47:49;;;;;;;7.53;6.40;;;21.90;88.60;;;21.79;69.24;98024.06;4987870;28;20477;-72
2023/06/22 04:50:17;;;;;;;6.30;5.70;;;22.10;88.40;;;21.20;71.10;98027.53;4984137;28;20566;-71
2023/06/22 04:52:45;;;;;;;6.20;5.50;;;21.90;88.30;;;22.17;67.92;98028.91;4969541;28;20467;-70
2023/06/22 04:55:18;;;;;;;5.80;5.20;;;22.10;88.30;;;22.14;68.18;98016.56;4985729;28;20459;-73
2023/06/22 04:57:48;;;;;;;6.17;5.60;;;22.20;88.20;;;22.30;67.46;98000.69;4967542;28;20489;-71
2023/06/22 05:00:18;;;;;;;6.47;5.90;;;22.40;87.70;;;22.50;66.39;97998.81;4987208;28;20451;-82
2023/06/22 05:02:46;;;;;;;6.23;5.60;;;22.80;86.90;;;23.85;61.97;98016.13;4982787;28;20474;-69
2023/06/22 05:05:14;;;;;;;6.63;5.93;;;23.60;85.40;;;24.36;59.46;98019.09;4987063;28;20990;-71
2023/06/22 05:07:44;;;;;;;7.00;4.73;;;24.40;83.20;;;24.33;59.78;98015.00;4980443;28;20471;-72
2023/06/22 05:10:13;;;;;;;7.40;5.67;;;24.40;82.80;;;23.90;60.91;98007.78;4982112;28;20459;-71
2023/06/22 05:12:41;;;;;;;7.00;6.30;;;24.10;83.00;;;24.01;59.72;97956.78;4983347;28;20453;-72
2023/06/22 05:15:10;;;;;;;6.00;5.40;;;24.40;82.10;;;23.21;63.45;98004.44;4982023;28;20513;-73
2023/06/22 05:17:42;;;;;;;6.87;6.07;;;23.90;83.20;;;23.85;61.76;98016.13;4980278;28;20464;-72
2023/06/22 05:20:11;;;;;;;7.87;6.30;;;23.90;83.30;;;24.47;59.29;98006.69;4984133;28;20891;-72
2023/06/22 05:22:38;;;;;;;7.20;5.80;;;24.40;82.40;;;25.01;58.08;98000.59;4973659;28;20471;-76
2023/06/22 05:25:12;;;;;;;8.37;6.43;;;25.00;81.30;;;24.31;60.07;97979.41;4982302;28;20558;-80
2023/06/22 05:27:41;;;;;;;10.80;9.00;;;25.00;81.30;;;24.48;60.35;98000.03;4981445;28;20460;-81
2023/06/22 05:30:10;;;;;;;6.97;6.27;;;24.90;81.10;;;23.93;61.90;98007.16;4981443;28;20505;-76
2023/06/22 05:33:04;;;;;;;7.40;6.70;;;24.60;81.10;;;24.75;59.62;98003.91;4983566;28;20464;-78
2023/06/22 05:35:32;;;;;;;6.40;5.80;;;24.80;81.50;;;24.40;60.52;98003.53;4960849;28;20465;-81
2023/06/22 05:37:59;;;;;;;7.00;6.30;;;25.10;81.40;;;24.53;59.66;98004.66;4983793;28;20519;-74
2023/06/22 05:40:27;;;;;;;6.70;6.10;;;25.30;80.30;;;24.32;60.82;98008.63;4991845;28;20472;-75
2023/06/22 05:42:55;;;;;;;8.47;6.20;;;25.00;81.10;;;24.58;60.38;98005.34;4989099;28;20543;-77
2023/06/22 05:45:22;;;;;;;6.00;5.40;;;25.20;80.90;;;25.67;57.49;98007.66;4976239;28;20546;-78
2023/06/22 05:47:50;;;;;;;6.90;6.30;;;25.60;80.60;;;25.64;57.27;98009.09;4963372;28;20461;-77
2023/06/22 05:50:17;;;;;;;6.53;5.73;;;25.90;79.30;;;24.83;59.90;97994.94;4983730;28;20464;-76
2023/06/22 05:52:44;;;;;;;7.83;6.33;;;25.60;79.90;;;25.10;58.95;97996.00;4979214;28;20475;-78
2023/06/22 05:55:12;;;;;;;7.43;6.73;;;25.70;79.70;;;25.02;59.19;97991.19;4982488;28;20471;-86
2023/06/22 05:57:40;;;;;;;7.10;6.50;;;25.50;80.00;;;24.66;60.12;97981.72;4978143;28;20474;-73
2023/06/22 06:00:12;;;;;;;6.93;6.23;;;25.10;80.60;;;24.52;60.57;97986.44;4982102;28;20207;-72
2023/06/22 06:02:43;;;;;;;7.53;6.73;;;25.00;81.00;;;24.14;62.40;97984.72;4958629;28;20483;-74
2023/06/22 06:05:13;;;;;;;7.67;6.90;;;24.50;81.90;;;24.66;60.41;98001.06;4979069;28;20473;-72
2023/06/22 06:07:40;;;;;;;7.93;7.20;;;24.90;81.60;;;25.51;58.66;97990.59;4979063;28;20467;-73
2023/06/22 06:10:09;;;;;;;7.53;6.70;;;25.40;81.10;;;25.48;57.77;97952.50;4985087;28;20547;-73
2023/06/22 06:12:36;;;;;;;6.90;6.30;;;25.90;79.90;;;26.01;57.04;97986.81;4982789;28;20551;-71
2023/06/22 06:15:04;;;;;;;7.00;6.30;;;26.20;79.20;;;25.56;57.87;97993.25;4970514;28;20579;-71
2023/06/22 06:17:33;;;;;;;6.93;6.33;;;26.20;78.90;;;25.94;57.22;97992.00;4955292;28;20976;-70
2023/06/22 06:20:04;;;;;;;7.80;7.00;;;26.30;78.80;;;25.87;56.99;97984.16;4971591;28;20458;-81
2023/06/22 06:22:31;;;;;;;8.10;7.40;;;26.40;78.30;;;25.64;57.28;97989.72;4958602;28;20484;-71
2023/06/22 06:24:59;;;;;;;7.07;6.37;;;26.40;78.00;;;25.17;58.91;97988.06;4981410;28;20824;-71
2023/06/22 06:27:29;;;;;;;7.13;6.43;;;26.00;78.80;;;25.39;58.89;97972.59;4979159;28;20877;-71
2023/06/22 06:29:57;;;;;;;7.77;5.80;;;26.00;79.10;;;24.92;60.12;97972.91;4991389;28;21314;-71
2023/06/22 06:32:24;;;;;;;7.43;6.07;;;25.90;79.00;;;24.55;61.93;97972.00;4980075;28;20522;-72
2023/06/22 06:34:53;;;;;;;6.90;6.23;;;25.40;79.90;;;23.92;63.46;97977.94;4988654;28;20552;-70
2023/06/22 06:37:20;;;;;;;6.73;6.13;;;24.70;81.40;;;23.84;64.43;97976.69;4995865;28;20466;-71
2023/06/22 06:39:47;;;;;;;7.53;6.37;;;24.30;82.80;;;23.95;64.32;97966.28;4990738;28;20933;-72
2023/06/22 06:42:15;;;;;;;7.07;6.37;;;24.10;83.60;;;23.62;65.50;97958.06;4989139;28;20505;-71
2023/06/22 06:44:42;;;;;;;6.67;6.07;;;24.00;84.20;;;23.44;66.45;97966.09;4971769;28;20457;-71
2023/06/22 06:47:10;;;;;;;6.67;6.07;;;23.70;85.10;;;23.75;65.65;97971.06;4970104;28;20856;-71
2023/06/22 06:49:37;;;;;;;7.50;6.80;;;23.90;85.50;;;23.38;66.06;97942.47;4979396;28;21092;-70
2023/06/22 06:52:07;;;;;;;7.80;7.00;;;23.80;85.10;;;23.56;66.04;97964.78;4982266;28;20529;-70
2023/06/22 06:54:35;;;;;;;7.33;6.63;;;23.80;85.50;;;23.76;65.73;97960.84;4982694;28;20567;-71
2023/06/22 06:57:03;;;;;;;6.93;6.30;;;23.90;85.70;;;23.90;65.34;97952.59;4967385;28;20522;-70
2023/06/22 06:59:31;;;;;;;7.60;6.30;;;24.00;85.50;;;24.05;65.09;97949.56;4982111;28;20532;-71
2023/06/22 07:01:58;;;;;;;7.77;7.03;;;24.20;85.70;;;24.32;63.75;97944.34;4981159;28;20466;-70
2023/06/22 07:04:25;;;;;;;6.57;5.97;;;24.40;85.20;;;24.47;63.00;97945.94;4987888;28;20450;-71
2023/06/22 07:06:52;;;;;;;7.07;6.23;;;24.60;84.70;;;24.53;63.62;97941.97;4986480;28;20488;-71
2023/06/22 07:09:21;;;;;;;7.13;6.43;;;24.60;84.70;;;24.71;62.93;97939.38;4983589;28;20570;-71
2023/06/22 07:11:48;;;;;;;6.33;5.77;;;24.70;84.70;;;25.07;62.06;97937.75;4983199;28;20513;-71
2023/06/22 07:14:15;;;;;;;6.93;6.30;;;25.00;84.70;;;25.08;61.26;97934.66;4978785;28;20493;-71
2023/06/22 07:16:42;;;;;;;6.47;5.90;;;25.10;84.00;;;24.62;62.01;97904.19;4984161;28;20511;-70
2023/06/22 07:19:13;;;;;;;7.20;6.37;;;25.00;83.70;;;24.98;61.62;97929.41;4983101;28;20461;-71
2023/06/22 07:21:40;;;;;;;6.73;6.13;;;25.10;83.70;;;25.23;60.70;97946.47;4970013;28;20481;-70
2023/06/22 07:24:08;;;;;;;8.70;6.40;;;25.30;83.10;;;25.51;60.36;97947.19;4971840;28;20464;-70
2023/06/22 07:26:36;;;;;;;8.13;6.07;;;25.40;83.00;;;25.33;59.26;97935.16;4987427;28;20480;-69
2023/06/22 07:29:04;;;;;;;6.60;6.00;;;25.50;82.00;;;25.67;58.61;97925.47;4991653;28;20563;-70
2023/06/22 07:31:31;;;;;;;6.70;6.03;;;25.60;82.00;;;25.76;58.35;97927.47;4966975;28;20443;-70
2023/06/22 07:33:58;;;;;;;6.50;5.80;;;25.80;81.30;;;25.69;58.56;97925.94;4985484;28;20469;-71
2023/06/22 07:36:26;;;;;;;6.50;5.90;;;25.70;81.50;;;25.45;58.78;97932.66;4967262;28;20461;-70
2023/06/22 07:38:54;;;;;;;7.40;6.40;;;25.60;81.30;;;25.35;59.64;97932.09;4972230;28;21978;-71
2023/06/22 07:41:22;;;;;;;6.37;5.70;;;25.50;81.80;;;25.47;59.26;97929.53;4982313;28;20552;-71
2023/06/22 07:43:51;;;;;;;6.10;5.50;;;25.50;81.80;;;25.89;58.01;97918.25;4982936;28;20461;-71
2023/06/22 07:46:18;;;;;;;6.00;5.50;;;25.70;81.30;;;26.30;57.42;97922.63;4984248;28;20500;-70
2023/06/22 07:48:45;;;;;;;6.33;5.70;;;26.10;81.30;;;26.26;56.18;97896.72;4986862;28;20461;-70
2023/06/22 07:51:14;;;;;;;6.23;5.50;;;26.30;80.10;;;26.68;55.60;97926.75;4986377;28;20463;-71
2023/06/22 07:53:42;;;;;;;5.90;5.20;;;26.60;79.40;;;26.94;53.49;97930.72;4984508;28;20531;-70
2023/06/22 07:56:11;;;;;;;6.10;5.40;;;26.80;77.70;;;26.78;53.73;97925.66;4980440;28;20464;-70
2023/06/22 07:58:38;;;;;;;5.90;5.30;;;26.80;76.90;;;26.98;52.78;97918.66;4985462;28;20481;-71
2023/06/22 08:01:07;;;;;;;6.03;5.20;;;26.90;76.00;;;26.90;52.75;97913.09;4982350;28;20951;-70
2023/06/22 08:03:36;;;;;;;6.17;5.57;;;27.00;75.30;;;26.62;53.06;97921.72;4986769;28;20463;-70
2023/06/22 08:06:03;;;;;;;5.10;4.70;;;26.80;74.80;;;26.86;52.08;97916.53;4968582;28;20474;-70
2023/06/22 08:08:31;;;;;;;4.97;4.57;;;26.80;74.50;;;27.33;51.84;97922.53;4986806;28;20467;-70
2023/06/22 08:10:58;;;;;;;4.87;4.47;;;27.10;74.70;;;27.66;50.51;97910.91;4980908;28;21656;-71
2023/06/22 08:13:25;;;;;;;5.23;4.83;;;27.40;73.60;;;27.81;49.88;97912.28;4984439;28;20546;-71
2023/06/22 08:15:52;;;;;;;6.00;5.07;;;27.50;72.70;;;27.58;50.82;97916.13;4981230;28;20590;-71
2023/06/22 08:18:21;;;;;;;6.10;5.50;;;27.60;72.60;;;27.53;50.96;97848.94;4980459;28;20463;-71
2023/06/22 08:20:49;;;;;;;6.73;6.13;;;27.70;73.30;;;27.91;50.06;97873.06;4980716;28;20521;-71
2023/06/22 08:23:16;;;;;;;4.77;4.37;;;28.00;72.70;;;27.85;50.43;97908.53;4984968;28;20531;-70
2023/06/22 08:25:44;;;;;;;4.93;4.10;;;27.90;72.20;;;28.08;50.57;97907.44;4981578;28;20449;-69
2023/06/22 08:28:11;;;;;;;5.50;5.00;;;28.00;72.40;;;28.45;50.31;97899.44;4982621;28;21040;-70
2023/06/22 08:30:38;;;;;;;6.47;5.20;;;28.30;72.70;;;28.73;49.48;97903.63;4980600;28;20856;-70
2023/06/22 08:33:06;;;;;;;5.33;4.83;;;28.50;72.00;;;28.33;47.73;97896.56;4984919;28;20490;-71
2023/06/22 08:35:34;;;;;;;5.10;4.70;;;28.50;69.10;;;27.85;48.76;97904.97;4983654;28;20468;-71
2023/06/22 08:38:02;;;;;;;5.50;5.00;;;28.10;69.40;;;28.50;47.76;97904.78;4968169;28;20519;-71
2023/06/22 08:40:30;;;;;;;4.93;4.53;;;28.30;69.30;;;28.89;46.64;97912.19;4986282;28;20474;-71
2023/06/22 08:42:57;;;;;;;5.00;4.60;;;28.50;68.30;;;28.72;47.65;97907.56;4982065;28;20447;-71
2023/06/22 08:45:25;;;;;;;5.67;5.20;;;28.70;68.40;;;28.53;48.07;97914.41;4977942;28;20555;-71
2023/06/22 08:47:52;;;;;;;4.53;4.13;;;28.60;68.10;;;28.79;45.78;97905.88;4984788;28;20578;-71
2023/06/22 08:50:19;;;;;;;4.30;3.90;;;28.70;66.50;;;28.62;46.65;97914.34;4988066;28;20472;-71
2023/06/22 08:52:48;;;;;;;4.33;4.03;;;28.60;66.20;;;28.58;46.64;97903.09;4969873;28;20983;-71
2023/06/22 08:55:15;;;;;;;4.03;3.63;;;28.60;65.90;;;28.81;45.20;97900.81;4971854;28;21125;-71
2023/06/22 08:57:43;;;;;;;4.10;3.60;;;28.70;64.70;;;29.05;44.27;97898.50;4982876;28;20460;-70
2023/06/22 09:00:19;;;;;;;4.50;3.93;;;28.90;64.30;;;29.21;44.39;97893.13;4984665;28;21003;-72
2023/06/22 09:02:48;;;;;;;4.40;4.00;;;29.10;63.90;;;29.60;43.30;97902.03;4982661;28;20456;-72
2023/06/22 09:05:15;;;;;;;4.90;4.20;;;29.40;63.10;;;29.20;43.31;97888.72;4968082;28;20968;-71
2023/06/22 09:07:43;;;;;;;4.30;3.90;;;29.20;62.50;;;29.20;43.82;97891.50;4980500;28;20488;-69
2023/06/22 09:10:12;;;;;;;4.43;3.70;;;29.10;62.50;;;29.33;44.19;97887.56;4980513;28;20473;-70
2023/06/22 09:12:40;;;;;;;4.90;4.40;;;29.20;63.10;;;29.70;43.24;97889.63;4987990;28;20463;-70
2023/06/22 09:15:09;;;;;;;4.87;4.37;;;29.50;62.40;;;29.57;43.26;97891.59;4983724;28;20456;-72
2023/06/22 09:17:36;;;;;;;4.57;4.13;;;29.60;62.20;;;29.45;43.48;97886.00;4981643;28;20465;-69
2023/06/22 09:20:06;;;;;;;4.90;4.13;;;29.50;61.60;;;29.11;43.33;97864.56;4985623;28;20452;-71
2023/06/22 09:22:33;;;;;;;5.00;4.33;;;29.30;61.10;;;29.40;43.10;97867.53;4983509;28;20472;-70
2023/06/22 09:25:01;;;;;;;4.87;3.87;;;29.30;61.30;;;29.63;42.36;97859.59;4989816;28;20452;-70
2023/06/22 09:27:31;;;;;;;4.43;4.03;;;29.50;61.00;;;29.83;42.44;97848.72;4985166;28;20547;-72
2023/06/22 09:29:58;;;;;;;4.60;4.20;;;29.70;60.50;;;30.11;42.14;97848.03;4981689;28;20476;-72
2023/06/22 09:32:25;;;;;;;4.30;3.80;;;29.80;60.80;;;30.12;42.05;97838.53;4981074;28;20555;-72
2023/06/22 09:34:53;;;;;;;6.73;4.20;;;30.00;60.40;;;30.35;41.23;97841.63;4987290;28;20530;-71
2023/06/22 09:37:20;;;;;;;4.20;3.80;;;30.30;60.10;;;30.01;42.41;97838.13;4963052;28;20463;-70
2023/06/22 09:39:47;;;;;;;4.50;3.90;;;30.10;60.10;;;29.91;41.90;97833.84;4981860;28;20472;-73
2023/06/22 09:42:14;;;;;;;6.80;4.20;;;30.10;59.60;;;29.66;42.30;97833.03;4964930;28;20808;-72
2023/06/22 09:44:43;;;;;;;5.30;4.50;;;29.70;59.40;;;29.51;42.43;97834.56;4981396;28;20547;-71
2023/06/22 09:47:10;;;;;;;6.23;4.27;;;29.60;59.80;;;29.79;41.85;97831.06;4982148;28;20476;-72
2023/06/22 09:49:37;;;;;;;4.90;4.30;;;29.70;59.70;;;29.97;41.58;97838.03;4983229;28;20496;-71
2023/06/22 09:52:06;;;;;;;6.83;4.60;;;29.90;59.30;;;30.09;41.28;97819.72;4983913;28;20806;-71
2023/06/22 09:54:34;;;;;;;4.53;4.13;;;30.00;58.90;;;29.96;41.20;97822.50;4980587;28;20495;-73
2023/06/22 09:57:02;;;;;;;4.63;4.20;;;30.00;58.70;;;30.00;41.18;97816.22;4978923;28;20464;-72
2023/06/22 09:59:31;;;;;;;4.50;3.50;;;30.00;58.40;;;30.17;40.97;97817.94;4990675;28;20460;-72
2023/06/22 10:02:00;;;;;;;4.43;4.03;;;30.10;58.70;;;30.30;41.18;97815.97;4980290;28;20546;-71
2023/06/22 10:04:27;;;;;;;4.10;3.80;;;30.10;58.70;;;29.92;41.82;97807.63;4977022;28;20461;-71
2023/06/22 10:06:57;;;;;;;4.50;4.10;;;30.10;58.90;;;30.38;41.14;97820.56;4988797;28;20594;-71
2023/06/22 10:09:25;;;;;;;5.70;3.80;;;30.20;58.90;;;30.79;40.01;97813.03;4986566;28;20456;-71
2023/06/22 10:11:52;;;;;;;3.90;3.60;;;30.50;58.50;;;30.32;40.46;97808.06;4985688;28;20483;-71
2023/06/22 10:14:20;;;;;;;5.00;4.43;;;30.40;57.80;;;30.57;40.78;97808.81;4982585;28;20461;-70
2023/06/22 10:16:49;;;;;;;5.13;4.63;;;30.30;58.20;;;30.48;40.87;97799.75;4985718;28;20464;-72
2023/06/22 10:19:17;;;;;;;5.30;4.03;;;30.40;58.00;;;30.64;40.98;97808.22;4973277;28;20979;-71
2023/06/22 10:21:44;;;;;;;4.07;3.67;;;30.40;58.20;;;30.73;39.61;97813.66;4988216;28;20487;-70
2023/06/22 10:24:12;;;;;;;4.53;4.13;;;30.60;57.40;;;30.14;40.79;97825.06;4990138;28;20452;-71
2023/06/22 10:26:39;;;;;;;4.80;4.30;;;30.30;57.30;;;30.11;41.18;97826.56;4987599;28;21040;-72